Time;durP1;ratioP1;P1;durP2;ratioP2;P2;SDS_P1;SDS_P2;PMS_P1;PMS_P2;Temp;Humidity;BMP_temperature;BMP_pressure;BME280_temperature;BME280_humidity;BME280_pressure;Samples;Min_cycle;Max_cycle;Signal;HPM_P1;HPM_P2
2021/10/08 00:00:18;;;;;;;10.35;6.32;;;;;;;11.40;60.72;102978.53;4967465;28;119991;-70
2021/10/08 00:02:45;;;;;;;8.88;6.05;;;;;;;11.38;60.75;102979.47;4942415;28;122925;-71
2021/10/08 00:05:13;;;;;;;10.30;6.30;;;;;;;11.34;60.64;102973.31;4958997;28;124694;-70
2021/10/08 00:07:41;;;;;;;9.50;6.45;;;;;;;11.30;60.79;102976.88;4966009;28;119063;-70
2021/10/08 00:10:09;;;;;;;11.55;6.90;;;;;;;11.28;60.48;102978.69;4944525;28;119204;-70
2021/10/08 00:12:36;;;;;;;10.60;6.45;;;;;;;11.25;60.75;102984.91;4964944;28;124383;-71
2021/10/08 00:15:04;;;;;;;10.18;6.55;;;;;;;11.23;60.88;102980.53;4963982;28;124109;-70
2021/10/08 00:17:31;;;;;;;10.85;6.32;;;;;;;11.19;60.48;102982.34;4968515;28;119392;-70
2021/10/08 00:19:59;;;;;;;10.45;6.30;;;;;;;11.15;60.67;102982.41;4963498;28;119188;-70
2021/10/08 00:22:27;;;;;;;8.25;5.85;;;;;;;11.12;60.72;102987.75;4965204;28;124936;-70
2021/10/08 00:24:55;;;;;;;9.95;6.50;;;;;;;11.10;60.96;102990.44;4940204;28;123103;-70
2021/10/08 00:27:22;;;;;;;11.02;6.32;;;;;;;11.06;61.04;102984.28;4949316;28;119606;-70
2021/10/08 00:29:50;;;;;;;9.00;6.13;;;;;;;11.05;60.90;102987.81;4930698;28;118642;-70
2021/10/08 00:32:17;;;;;;;11.15;6.47;;;;;;;11.01;60.87;102985.25;4944972;28;122935;-70
2021/10/08 00:34:44;;;;;;;10.95;6.63;;;;;;;10.98;60.82;102991.47;4964786;28;123954;-70
2021/10/08 00:37:11;;;;;;;10.05;6.18;;;;;;;10.95;61.03;102991.50;4935308;28;118533;-70
2021/10/08 00:39:38;;;;;;;10.65;6.70;;;;;;;10.94;61.00;102994.16;4930392;28;118170;-70
2021/10/08 00:42:06;;;;;;;11.15;6.40;;;;;;;10.91;60.99;102995.09;4949000;28;123030;-70
2021/10/08 00:44:33;;;;;;;9.45;6.28;;;;;;;10.91;60.99;103000.38;4950654;28;122319;-70
2021/10/08 00:47:10;;;;;;;10.82;6.63;;;;;;;10.88;60.98;102995.09;4948941;28;119162;-70
2021/10/08 00:49:38;;;;;;;10.20;6.50;;;;;;;10.90;61.13;102998.63;4947094;28;118845;-70
2021/10/08 00:52:05;;;;;;;10.48;6.35;;;;;;;10.89;61.12;102992.44;4963423;28;123918;-70
2021/10/08 00:54:32;;;;;;;8.98;5.90;;;;;;;10.89;61.01;102991.56;4949014;28;121813;-70
2021/10/08 00:57:00;;;;;;;7.82;5.53;;;;;;;10.89;60.99;103002.19;4950610;28;118603;-70
2021/10/08 00:59:28;;;;;;;9.68;6.25;;;;;;;10.86;61.18;102996.91;4968851;28;118873;-70
2021/10/08 01:01:55;;;;;;;9.23;6.07;;;;;;;10.84;60.88;102994.25;4969776;28;124274;-70
2021/10/08 01:04:24;;;;;;;8.05;5.85;;;;;;;10.82;60.82;103000.50;4954290;28;122757;-70
2021/10/08 01:06:51;;;;;;;8.75;5.65;;;;;;;10.80;60.74;102991.69;4968885;28;119360;-71
2021/10/08 01:09:19;;;;;;;10.32;5.97;;;;;;;10.77;60.93;103002.31;4942190;28;118096;-71
2021/10/08 01:11:47;;;;;;;9.25;5.82;;;;;;;10.75;61.06;102997.00;4956016;28;123734;-70
2021/10/08 01:14:19;;;;;;;9.30;5.93;;;;;;;10.73;60.99;103000.59;4949703;28;122694;-70
2021/10/08 01:16:51;;;;;;;9.27;5.97;;;;;;;10.70;61.01;102999.72;4950665;28;118449;-70
2021/10/08 01:19:19;;;;;;;10.52;5.93;;;;;;;10.67;60.83;102991.81;4952163;28;118191;-71
2021/10/08 01:21:53;;;;;;;9.52;5.97;;;;;;;10.64;61.08;102997.16;4968053;28;124382;-71
2021/10/08 01:24:21;;;;;;;10.32;6.13;;;;;;;10.62;61.00;103001.56;4951095;28;123122;-72
2021/10/08 01:26:48;;;;;;;8.18;5.60;;;;;;;10.60;61.08;102995.41;4956457;28;118586;-71
2021/10/08 01:29:16;;;;;;;10.45;6.13;;;;;;;10.59;61.16;102988.38;4948071;28;119176;-71
2021/10/08 01:31:43;;;;;;;8.88;5.90;;;;;;;10.57;61.13;102990.16;4953911;28;123881;-71
2021/10/08 01:34:11;;;;;;;9.40;6.20;;;;;;;10.57;60.99;102989.25;4953400;28;123020;-70
2021/10/08 01:36:48;;;;;;;8.40;5.60;;;;;;;10.54;60.94;102995.47;4952751;28;119339;-71
2021/10/08 01:39:17;;;;;;;8.82;5.28;;;;;;;10.53;61.04;102996.38;4953532;28;118974;-71
2021/10/08 01:41:44;;;;;;;7.75;5.50;;;;;;;10.49;60.83;102992.88;4947707;28;124910;-71
2021/10/08 01:44:18;;;;;;;7.88;5.13;;;;;;;10.47;61.19;103004.38;4948727;28;126372;-71
2021/10/08 01:46:49;;;;;;;8.10;5.28;;;;;;;10.45;61.16;102990.28;4952451;28;118596;-71
2021/10/08 01:49:18;;;;;;;6.85;4.95;;;;;;;10.43;61.09;102992.06;4947413;28;118337;-71
2021/10/08 01:51:45;;;;;;;7.72;5.05;;;;;;;10.41;61.14;102988.53;4935465;28;123676;-71
2021/10/08 01:54:12;;;;;;;8.95;5.72;;;;;;;10.40;61.16;102992.09;4947109;28;123181;-71
2021/10/08 01:56:44;;;;;;;9.65;5.90;;;;;;;10.38;61.06;102993.88;4950335;28;119415;-71
2021/10/08 01:59:12;;;;;;;9.75;5.40;;;;;;;10.36;60.94;102998.28;4952566;28;118248;-71
2021/10/08 02:01:41;;;;;;;8.82;5.60;;;;;;;10.35;61.14;102996.56;4948077;28;123396;-71
2021/10/08 02:04:14;;;;;;;9.55;5.70;;;;;;;10.32;60.92;102998.34;4952351;28;127154;-70
2021/10/08 02:06:42;;;;;;;9.73;5.72;;;;;;;10.29;60.98;102995.69;4953504;28;118959;-70
2021/10/08 02:09:10;;;;;;;10.32;5.85;;;;;;;10.26;61.08;102995.69;4949781;28;118609;-70
2021/10/08 02:11:41;;;;;;;9.45;5.93;;;;;;;10.25;60.99;102996.59;4948743;28;123307;-70
2021/10/08 02:14:09;;;;;;;10.02;5.72;;;;;;;10.22;61.17;102993.97;4947377;28;122993;-71
2021/10/08 02:16:37;;;;;;;9.65;6.03;;;;;;;10.21;61.06;102992.25;4953176;28;118982;-70
2021/10/08 02:19:08;;;;;;;9.63;6.18;;;;;;;10.19;61.11;103004.63;4950952;28;118332;-70
2021/10/08 02:21:40;;;;;;;9.07;5.82;;;;;;;10.19;61.02;102994.03;4963643;28;123039;-70
2021/10/08 02:24:09;;;;;;;9.40;5.30;;;;;;;10.17;61.17;102998.47;4944959;28;122933;-70
2021/10/08 02:26:42;;;;;;;7.53;5.18;;;;;;;10.15;61.20;102997.56;4944917;28;119487;-70
2021/10/08 02:29:14;;;;;;;7.20;4.88;;;;;;;10.13;61.14;103007.28;4929513;28;119052;-71
2021/10/08 02:31:41;;;;;;;8.23;5.30;;;;;;;10.10;61.16;103004.69;4953170;28;122930;-70
2021/10/08 02:34:08;;;;;;;8.43;5.68;;;;;;;10.07;61.12;103004.69;4949300;28;123701;-70
2021/10/08 02:36:36;;;;;;;10.93;6.13;;;;;;;10.05;61.22;102995.91;4949611;28;118497;-70
2021/10/08 02:39:04;;;;;;;8.70;5.63;;;;;;;10.03;61.05;102992.38;4962870;28;118245;-70
2021/10/08 02:41:32;;;;;;;11.40;5.65;;;;;;;10.00;61.34;102987.09;4950479;28;123846;-70
2021/10/08 02:43:59;;;;;;;9.82;5.80;;;;;;;9.98;61.27;102997.69;4950755;28;122873;-71
2021/10/08 02:46:27;;;;;;;9.30;5.47;;;;;;;9.96;61.24;102995.97;4949513;28;118425;-71
2021/10/08 02:48:54;;;;;;;9.55;5.40;;;;;;;9.92;61.22;102990.69;4953139;28;118098;-70
2021/10/08 02:51:21;;;;;;;8.95;5.35;;;;;;;9.91;61.38;102994.25;4961950;28;124641;-70
2021/10/08 02:53:48;;;;;;;8.65;5.32;;;;;;;9.90;60.94;102989.81;4945727;28;123312;-70
2021/10/08 02:56:17;;;;;;;9.77;6.07;;;;;;;9.88;61.38;102994.25;4949840;28;118403;-70
2021/10/08 02:58:44;;;;;;;11.38;6.07;;;;;;;9.87;61.33;102992.50;4944057;28;117990;-70
2021/10/08 03:01:12;;;;;;;9.60;5.93;;;;;;;9.86;61.18;102989.88;4944904;28;123415;-71
2021/10/08 03:03:39;;;;;;;11.05;6.80;;;;;;;9.85;61.29;102986.34;4951191;28;122085;-70
2021/10/08 03:06:06;;;;;;;10.32;5.97;;;;;;;9.83;60.99;102985.50;4969217;28;119531;-70
2021/10/08 03:08:33;;;;;;;10.77;6.07;;;;;;;9.83;61.31;102982.84;4966699;28;119209;-70
2021/10/08 03:11:00;;;;;;;9.40;5.60;;;;;;;9.82;61.33;102978.44;4952828;28;123046;-70
2021/10/08 03:13:29;;;;;;;10.05;6.32;;;;;;;9.81;61.10;102989.88;4953178;28;123153;-70
2021/10/08 03:15:56;;;;;;;10.70;6.15;;;;;;;9.80;61.36;102985.50;4949710;28;119278;-72
2021/10/08 03:18:24;;;;;;;11.88;6.20;;;;;;;9.78;60.99;102987.28;4959669;28;119068;-70
2021/10/08 03:20:52;;;;;;;11.10;6.35;;;;;;;9.75;61.14;102993.47;4952777;28;123006;-70
2021/10/08 03:23:19;;;;;;;10.30;6.28;;;;;;;9.73;61.20;102994.38;4949974;28;122762;-70
2021/10/08 03:25:46;;;;;;;11.02;5.65;;;;;;;9.70;61.27;103000.56;4949987;28;118258;-70
2021/10/08 03:28:14;;;;;;;10.40;5.82;;;;;;;9.68;61.15;102998.81;4967162;28;119212;-70
2021/10/08 03:30:41;;;;;;;8.43;5.78;;;;;;;9.65;61.10;102994.41;4947384;28;122979;-71
2021/10/08 03:33:08;;;;;;;9.60;5.60;;;;;;;9.62;61.35;102997.06;4933153;28;120951;-70
2021/10/08 03:35:42;;;;;;;8.05;5.40;;;;;;;9.60;61.00;102992.69;4951101;28;118404;-70
2021/10/08 03:38:15;;;;;;;7.72;5.00;;;;;;;9.57;61.32;102998.91;4963825;28;118992;-71
2021/10/08 03:40:48;;;;;;;7.50;4.72;;;;;;;9.55;61.31;103000.66;4966544;28;124103;-71
2021/10/08 03:43:15;;;;;;;8.35;5.40;;;;;;;9.55;61.22;102996.25;4936127;28;122664;-71
2021/10/08 03:45:49;;;;;;;9.80;5.50;;;;;;;9.53;61.34;103003.31;4968557;28;119528;-71
2021/10/08 03:48:32;;;;;;;8.32;5.57;;;;;;;9.53;61.25;103000.69;4951023;28;117960;-71
2021/10/08 03:51:01;;;;;;;8.07;5.18;;;;;;;9.50;61.42;102998.03;4948917;28;122963;-71
2021/10/08 03:53:30;;;;;;;11.52;5.25;;;;;;;9.49;61.05;103001.59;4948855;28;123059;-71
2021/10/08 03:55:57;;;;;;;11.18;5.55;;;;;;;9.47;61.33;103003.34;4967634;28;119413;-71
2021/10/08 03:58:24;;;;;;;8.15;5.22;;;;;;;9.47;61.26;103002.47;4967063;28;119006;-71
2021/10/08 04:00:51;;;;;;;9.10;5.70;;;;;;;9.45;61.34;102999.81;4958911;28;124145;-71
2021/10/08 04:03:22;;;;;;;9.60;5.43;;;;;;;9.44;61.59;102998.09;4942281;28;123591;-71
2021/10/08 04:05:51;;;;;;;10.18;5.00;;;;;;;9.44;61.64;102998.09;4952543;28;119526;-71
2021/10/08 04:08:20;;;;;;;8.50;5.40;;;;;;;9.43;61.43;103006.88;4948525;28;118882;-71
2021/10/08 04:10:51;;;;;;;8.98;5.35;;;;;;;9.41;61.67;103008.66;4948121;28;122908;-71
2021/10/08 04:13:18;;;;;;;8.90;5.68;;;;;;;9.42;61.73;103005.16;4959738;28;123927;-71
2021/10/08 04:15:46;;;;;;;8.88;5.20;;;;;;;9.42;61.84;103005.16;4966656;28;119379;-71
2021/10/08 04:18:13;;;;;;;7.75;5.35;;;;;;;9.42;61.60;103005.16;4965764;28;118964;-72
2021/10/08 04:20:41;;;;;;;10.57;5.72;;;;;;;9.42;61.88;103010.44;4950155;28;123035;-71
2021/10/08 04:23:11;;;;;;;14.50;5.55;;;;;;;9.42;61.81;103007.78;4947426;28;122948;-71
2021/10/08 04:25:40;;;;;;;12.57;5.88;;;;;;;9.42;61.58;103014.81;4946440;28;118104;-71
2021/10/08 04:28:08;;;;;;;11.15;6.00;;;;;;;9.42;61.85;103015.72;4954143;28;118300;-71
2021/10/08 04:30:36;;;;;;;11.68;5.75;;;;;;;9.42;61.90;103025.41;4972390;28;123916;-71
2021/10/08 04:33:19;;;;;;;10.63;5.70;;;;;;;9.41;61.85;103021.88;4958190;28;123094;-71
2021/10/08 04:35:59;;;;;;;9.32;5.78;;;;;;;9.42;61.73;103021.03;4958052;28;119057;-71
2021/10/08 04:38:31;;;;;;;10.40;6.05;;;;;;;9.43;62.07;103022.75;4957295;28;118873;-72
2021/10/08 04:41:03;;;;;;;13.25;6.15;;;;;;;9.43;61.96;103028.03;4951849;28;123414;-71
2021/10/08 04:43:31;;;;;;;19.30;5.82;;;;;;;9.43;61.67;103022.75;4950027;28;123047;-71
2021/10/08 04:46:01;;;;;;;11.48;6.22;;;;;;;9.41;61.74;103021.88;4975067;28;119702;-71
2021/10/08 04:48:30;;;;;;;14.07;6.00;;;;;;;9.41;61.82;103024.53;4952747;28;118020;-72
2021/10/08 04:50:57;;;;;;;10.25;5.78;;;;;;;9.40;61.69;103028.09;4957709;28;123244;-72
2021/10/08 04:53:25;;;;;;;11.57;6.25;;;;;;;9.37;62.05;103022.78;4954760;28;123043;-71
2021/10/08 04:55:56;;;;;;;9.38;5.60;;;;;;;9.35;62.06;103029.84;4955358;28;119370;-75
2021/10/08 04:58:24;;;;;;;11.20;6.53;;;;;;;9.37;61.64;103021.94;4954781;28;119211;-71
2021/10/08 05:00:55;;;;;;;11.30;5.97;;;;;;;9.37;62.01;103030.72;4969346;28;122922;-71
2021/10/08 05:03:23;;;;;;;11.18;5.95;;;;;;;9.36;62.08;103034.25;4958027;28;122955;-71
2021/10/08 05:05:51;;;;;;;8.95;5.97;;;;;;;9.36;61.68;103036.88;4940256;28;118439;-71
2021/10/08 05:08:24;;;;;;;9.90;5.82;;;;;;;9.37;61.78;103030.72;4951424;28;121515;-71
2021/10/08 05:10:54;;;;;;;10.93;6.20;;;;;;;9.37;62.22;103043.94;4955020;28;123683;-71
2021/10/08 05:13:24;;;;;;;8.95;5.28;;;;;;;9.37;61.95;103036.03;4957965;28;122954;-73
2021/10/08 05:15:52;;;;;;;13.32;5.97;;;;;;;9.37;62.02;103036.03;4931746;28;118402;-71
2021/10/08 05:18:20;;;;;;;10.50;6.07;;;;;;;9.39;61.85;103039.53;4954501;28;118234;-72
2021/10/08 05:20:48;;;;;;;9.73;6.15;;;;;;;9.40;62.14;103043.94;4955241;28;123526;-71
2021/10/08 05:23:16;;;;;;;11.32;6.03;;;;;;;9.41;62.08;103035.13;4990213;22;124156;-68
2021/10/08 05:25:43;;;;;;;9.45;6.10;;;;;;;9.41;61.93;103029.81;4968844;28;118336;-68
2021/10/08 05:28:10;;;;;;;12.23;5.82;;;;;;;9.43;62.16;103033.34;4937929;28;118508;-67
2021/10/08 05:30:38;;;;;;;9.77;5.97;;;;;;;9.44;62.35;103040.41;4952068;28;123209;-68
2021/10/08 05:33:05;;;;;;;13.85;6.10;;;;;;;9.44;62.06;103040.41;4971148;28;123957;-68
2021/10/08 05:35:33;;;;;;;8.70;5.35;;;;;;;9.44;62.22;103037.75;4952956;28;118620;-68
2021/10/08 05:38:00;;;;;;;9.05;5.82;;;;;;;9.45;62.00;103041.28;4958050;28;118673;-68
2021/10/08 05:40:28;;;;;;;9.20;5.50;;;;;;;9.44;62.03;103040.41;4932565;28;123481;-67
2021/10/08 05:42:55;;;;;;;10.80;5.93;;;;;;;9.43;62.06;103049.22;4963974;28;123723;-67
2021/10/08 05:45:22;;;;;;;9.68;6.05;;;;;;;9.40;61.78;103043.94;4947764;28;119945;-67
2021/10/08 05:47:50;;;;;;;11.00;6.15;;;;;;;9.39;61.79;103058.03;4949428;28;119496;-67
2021/10/08 05:50:17;;;;;;;11.30;6.05;;;;;;;9.37;62.20;103054.53;4961035;28;124591;-68
2021/10/08 05:52:45;;;;;;;9.02;5.70;;;;;;;9.36;61.91;103058.03;4954258;28;123021;-67
2021/10/08 05:55:14;;;;;;;9.40;5.55;;;;;;;9.33;61.66;103058.09;4937945;28;118402;-68
2021/10/08 05:57:41;;;;;;;9.52;5.32;;;;;;;9.32;62.03;103061.59;4953068;28;117877;-67
2021/10/08 06:00:09;;;;;;;9.05;5.47;;;;;;;9.30;61.94;103063.38;4951585;28;123412;-67
2021/10/08 06:02:45;;;;;;;7.65;5.13;;;;;;;9.31;62.07;103070.44;4940344;28;127596;-68
2021/10/08 06:05:18;;;;;;;9.30;5.70;;;;;;;9.31;62.12;103075.72;4955965;28;118822;-68
2021/10/08 06:07:45;;;;;;;9.75;5.95;;;;;;;9.30;61.75;103076.59;4951709;28;117649;-68
2021/10/08 06:10:13;;;;;;;9.77;5.53;;;;;;;9.27;62.12;103076.63;4962764;28;124157;-68
2021/10/08 06:12:44;;;;;;;9.05;5.68;;;;;;;9.27;61.82;103079.28;4947809;28;123243;-68
2021/10/08 06:15:13;;;;;;;11.10;6.18;;;;;;;9.27;62.12;103081.91;4946735;28;118740;-68
2021/10/08 06:17:42;;;;;;;8.80;5.80;;;;;;;9.29;62.25;103082.78;4966465;28;118964;-68
2021/10/08 06:20:10;;;;;;;10.18;6.30;;;;;;;9.29;62.20;103080.13;4945443;28;123203;-68
2021/10/08 06:22:40;;;;;;;10.65;6.22;;;;;;;9.29;61.98;103077.50;4951209;28;123037;-68
2021/10/08 06:25:09;;;;;;;10.65;6.13;;;;;;;9.30;62.29;103079.25;4942525;28;119262;-68
2021/10/08 06:27:38;;;;;;;10.15;6.10;;;;;;;9.32;62.02;103082.75;4951325;28;118701;-67
2021/10/08 06:30:08;;;;;;;9.10;5.75;;;;;;;9.33;62.37;103084.53;4952281;28;123128;-67
2021/10/08 06:32:38;;;;;;;9.88;5.75;;;;;;;9.34;62.25;103080.97;4948106;28;123159;-68
2021/10/08 06:35:07;;;;;;;9.20;5.85;;;;;;;9.37;62.21;103080.97;4948896;28;119888;-67
2021/10/08 06:37:34;;;;;;;9.98;5.97;;;;;;;9.39;62.32;103089.78;4950940;28;118774;-67
2021/10/08 06:40:04;;;;;;;12.68;6.10;;;;;;;9.41;62.18;103085.38;4949276;28;123521;-67
2021/10/08 06:42:31;;;;;;;12.32;6.05;;;;;;;9.44;62.67;103080.06;4952606;28;123280;-67
2021/10/08 06:45:15;;;;;;;12.85;6.85;;;;;;;9.46;62.47;103078.28;4960573;28;119050;-67
2021/10/08 06:47:42;;;;;;;11.63;6.20;;;;;;;9.50;62.36;103082.69;4961485;28;119136;-67
2021/10/08 06:50:10;;;;;;;12.07;6.38;;;;;;;9.53;62.33;103082.69;4946304;28;123398;-67
2021/10/08 06:52:38;;;;;;;12.40;5.95;;;;;;;9.57;62.22;103087.94;4947314;28;123757;-67
2021/10/08 06:55:06;;;;;;;11.35;6.68;;;;;;;9.60;62.66;103083.50;4945476;28;118657;-67
2021/10/08 06:57:33;;;;;;;13.30;6.25;;;;;;;9.64;62.42;103084.38;4947225;28;117889;-67
2021/10/08 07:00:00;;;;;;;10.82;6.65;;;;;;;9.67;62.46;103089.66;4944362;28;123677;-67
2021/10/08 07:02:27;;;;;;;12.15;6.55;;;;;;;9.72;62.77;103085.25;4970300;28;124020;-67
2021/10/08 07:04:55;;;;;;;10.77;6.32;;;;;;;9.75;62.20;103093.16;4952567;28;118484;-68
2021/10/08 07:07:22;;;;;;;11.20;7.03;;;;;;;9.77;62.76;103091.38;4959341;28;119007;-67
2021/10/08 07:09:54;;;;;;;13.05;7.68;;;;;;;9.78;62.34;103082.56;4947740;28;123080;-68
2021/10/08 07:12:22;;;;;;;12.15;7.78;;;;;;;9.82;62.38;103094.00;4945859;28;124146;-67
2021/10/08 07:14:49;;;;;;;14.20;7.88;;;;;;;9.85;62.64;103100.16;4961653;28;119363;-68
2021/10/08 07:17:40;;;;;;;12.98;7.32;;;;;;;9.88;62.86;103101.91;4950472;28;117859;-67
2021/10/08 07:20:08;;;;;;;16.02;8.43;;;;;;;9.91;62.51;103110.72;4965046;28;123867;-68
2021/10/08 07:22:37;;;;;;;13.23;7.97;;;;;;;9.98;62.55;103110.66;4939326;28;123884;-67
2021/10/08 07:25:06;;;;;;;15.27;7.95;;;;;;;10.03;62.84;103108.88;4965328;28;120148;-67
2021/10/08 07:27:35;;;;;;;16.30;8.77;;;;;;;10.11;63.10;103112.34;4969253;28;120624;-67
2021/10/08 07:30:04;;;;;;;16.23;9.25;;;;;;;10.21;63.02;103113.16;4965428;28;122883;-67
2021/10/08 07:32:32;;;;;;;16.23;9.05;;;;;;;10.30;63.21;103110.44;4948882;28;124761;-68
2021/10/08 07:34:59;;;;;;;15.98;8.90;;;;;;;10.35;63.28;103110.47;4969328;28;119576;-68
2021/10/08 07:37:26;;;;;;;18.30;9.32;;;;;;;10.39;62.91;103114.84;4952939;28;118216;-67
2021/10/08 07:39:54;;;;;;;15.82;8.68;;;;;;;10.42;63.31;103112.19;4963017;28;124120;-68
2021/10/08 07:42:21;;;;;;;17.88;9.25;;;;;;;10.47;63.21;103115.66;4966497;28;123940;-67
2021/10/08 07:44:49;;;;;;;19.38;9.48;;;;;;;10.49;63.12;103113.84;4965162;28;119989;-67
2021/10/08 07:47:17;;;;;;;22.25;10.32;;;;;;;10.56;63.35;103114.69;4964334;28;119418;-67
2021/10/08 07:49:45;;;;;;;17.83;9.52;;;;;;;10.60;63.21;103117.31;4963042;28;124769;-68
2021/10/08 07:52:13;;;;;;;20.65;9.75;;;;;;;10.64;63.36;103113.75;4963827;28;124686;-67
2021/10/08 07:54:41;;;;;;;22.17;11.02;;;;;;;10.68;63.42;103115.47;4964681;28;119273;-68
2021/10/08 07:57:08;;;;;;;29.08;11.18;;;;;;;10.80;63.82;103113.59;4961506;28;119361;-67
2021/10/08 07:59:36;;;;;;;26.60;12.02;;;;;;;10.92;63.92;103118.78;4963171;28;124319;-67
2021/10/08 08:02:04;;;;;;;34.72;15.02;;;;;;;11.03;63.77;103122.19;4965166;28;124636;-67
2021/10/08 08:04:31;;;;;;;29.38;14.00;;;;;;;11.16;63.97;103117.66;4969264;28;119087;-68
2021/10/08 08:06:58;;;;;;;33.55;14.27;;;;;;;11.28;64.04;103119.28;4951915;28;117397;-67
2021/10/08 08:09:25;;;;;;;35.38;16.30;;;;;;;11.40;64.05;103124.47;4967279;28;124702;-67
2021/10/08 08:11:52;;;;;;;40.90;17.42;;;;;;;11.50;63.91;103123.44;4950924;28;124450;-67
2021/10/08 08:14:19;;;;;;;46.45;20.17;;;;;;;11.59;63.98;103126.91;4961499;28;121488;-67
2021/10/08 08:16:47;;;;;;;48.35;20.50;;;;;;;11.65;64.13;103127.69;4970052;28;120767;-67
2021/10/08 08:19:14;;;;;;;45.38;20.40;;;;;;;11.73;64.13;103127.56;4947626;28;124820;-67
2021/10/08 08:21:42;;;;;;;40.63;19.05;;;;;;;11.82;64.40;103135.41;4967595;28;123644;-67
2021/10/08 08:24:09;;;;;;;43.05;18.90;;;;;;;11.95;64.54;103124.69;4952115;28;119135;-67
2021/10/08 08:26:37;;;;;;;41.88;18.95;;;;;;;12.09;64.47;103122.69;4963690;28;119702;-67
2021/10/08 08:29:05;;;;;;;46.15;19.55;;;;;;;12.23;64.47;103125.16;4950009;28;124148;-67
2021/10/08 08:31:33;;;;;;;49.67;20.35;;;;;;;12.36;64.51;103125.84;4951441;28;125202;-66
2021/10/08 08:34:00;;;;;;;49.92;21.45;;;;;;;12.49;64.48;103127.41;4966068;28;119806;-67
2021/10/08 08:36:30;;;;;;;66.72;24.67;;;;;;;12.62;64.53;103122.72;4968848;28;118856;-66
2021/10/08 08:39:02;;;;;;;65.22;25.20;;;;;;;12.74;64.54;103137.63;4958795;28;124084;-66
2021/10/08 08:41:31;;;;;;;67.47;24.35;;;;;;;12.89;64.59;103137.34;4960395;28;124130;-67
2021/10/08 08:44:01;;;;;;;60.55;23.25;;;;;;;13.01;64.29;103130.91;4968912;28;119130;-67
2021/10/08 08:46:30;;;;;;;60.63;23.75;;;;;;;13.08;64.12;103126.38;4968481;28;121313;-67
2021/10/08 08:49:00;;;;;;;55.95;21.38;;;;;;;13.11;64.02;103123.63;4958028;28;124143;-67
2021/10/08 08:51:28;;;;;;;52.65;22.10;;;;;;;13.17;64.28;103126.19;4961640;28;124765;-67
2021/10/08 08:54:06;;;;;;;49.38;21.38;;;;;;;13.25;64.57;103130.44;4948212;28;120227;-67
2021/10/08 08:56:35;;;;;;;54.95;20.52;;;;;;;13.41;64.63;103124.84;4951662;28;119627;-67
2021/10/08 08:59:09;;;;;;;54.35;20.67;;;;;;;13.56;64.75;103126.31;4963824;28;124109;-67
2021/10/08 09:01:59;;;;;;;44.45;19.63;;;;;;;13.73;64.62;103124.19;4963278;28;124630;-67
2021/10/08 09:04:28;;;;;;;38.45;17.58;;;;;;;13.90;64.76;103122.94;4950088;28;120173;-67
2021/10/08 09:06:56;;;;;;;34.90;16.33;;;;;;;14.07;64.72;103114.56;4955714;28;119830;-67
2021/10/08 09:09:25;;;;;;;38.63;17.63;;;;;;;14.22;64.89;103114.19;4950945;28;124781;-67
2021/10/08 09:11:55;;;;;;;36.35;17.00;;;;;;;14.37;64.73;103113.84;4950016;28;123973;-67
2021/10/08 09:14:31;;;;;;;30.23;14.98;;;;;;;14.51;64.62;103100.16;4962354;28;120138;-67
2021/10/08 09:17:07;;;;;;;29.83;13.50;;;;;;;14.63;64.63;103114.13;4954170;28;119593;-67
2021/10/08 09:19:58;;;;;;;26.35;13.98;;;;;;;14.78;64.67;103113.72;4955224;28;123991;-67
2021/10/08 09:22:32;;;;;;;26.67;13.15;;;;;;;14.93;64.48;103113.31;4970575;28;124813;-66
2021/10/08 09:25:11;;;;;;;25.77;13.20;;;;;;;15.06;64.46;103112.97;4969982;28;118930;-66
2021/10/08 09:27:42;;;;;;;22.65;11.98;;;;;;;15.20;64.37;103110.81;4970768;28;119883;-67
2021/10/08 09:30:10;;;;;;;22.83;11.70;;;;;;;15.31;64.13;103114.06;4966289;28;125018;-67
2021/10/08 09:32:40;;;;;;;25.42;12.80;;;;;;;15.44;64.20;103113.69;4935964;28;123287;-66
2021/10/08 09:35:09;;;;;;;23.77;12.48;;;;;;;15.56;64.09;103113.34;4925561;28;118217;-66
2021/10/08 09:37:37;;;;;;;22.85;12.75;;;;;;;15.70;64.18;103110.25;4957905;28;119353;-67
2021/10/08 09:40:20;;;;;;;22.30;12.07;;;;;;;15.84;64.20;103112.53;4962135;28;123931;-67
2021/10/08 09:42:48;;;;;;;26.92;12.18;;;;;;;15.97;63.86;103108.53;4951258;28;123324;-67
2021/10/08 09:45:32;;;;;;;22.70;12.38;;;;;;;16.09;63.66;103116.19;4950122;28;119487;-67
2021/10/08 09:47:59;;;;;;;19.25;11.05;;;;;;;16.22;63.67;103113.09;4952216;28;118983;-67
2021/10/08 09:50:26;;;;;;;24.23;12.35;;;;;;;16.29;63.62;103112.88;4957363;28;123900;-67
2021/10/08 09:53:15;;;;;;;24.48;12.45;;;;;;;16.40;63.19;103101.81;4937341;28;122857;-67
2021/10/08 09:55:42;;;;;;;24.27;12.20;;;;;;;16.48;63.31;103110.47;4958419;28;120351;-67
2021/10/08 09:58:10;;;;;;;23.95;12.40;;;;;;;16.59;63.02;103107.41;4960560;28;119811;-67
2021/10/08 10:00:57;;;;;;;24.30;12.77;;;;;;;16.70;63.29;103115.06;4939644;28;123264;-67
2021/10/08 10:03:25;;;;;;;26.02;13.73;;;;;;;16.81;63.14;103107.53;4965193;28;124520;-67
2021/10/08 10:05:52;;;;;;;26.60;13.85;;;;;;;16.92;63.01;103115.22;4970745;28;119410;-66
2021/10/08 10:08:19;;;;;;;24.10;13.27;;;;;;;17.01;62.80;103111.34;4969588;28;119150;-66
2021/10/08 10:10:47;;;;;;;23.35;14.25;;;;;;;17.09;62.50;103111.94;4952799;28;123831;-66
2021/10/08 10:13:14;;;;;;;23.13;12.98;;;;;;;17.14;62.38;103110.00;4947090;28;123889;-66
2021/10/08 10:15:48;;;;;;;22.52;13.07;;;;;;;17.22;62.20;103102.53;4966237;28;119254;-66
2021/10/08 10:18:18;;;;;;;22.95;12.85;;;;;;;17.32;62.37;103106.59;4952197;28;118463;-66
2021/10/08 10:20:47;;;;;;;21.40;11.88;;;;;;;17.41;61.83;103102.72;4960663;28;124710;-67
2021/10/08 10:23:20;;;;;;;21.17;12.30;;;;;;;17.47;61.67;103106.97;4968699;28;124239;-67
2021/10/08 10:25:49;;;;;;;21.20;11.88;;;;;;;17.54;61.37;103103.13;4965324;28;119477;-67
2021/10/08 10:28:17;;;;;;;22.35;12.02;;;;;;;17.61;61.54;103099.28;4965591;28;119774;-67
2021/10/08 10:30:46;;;;;;;20.77;11.45;;;;;;;17.69;61.47;103099.84;4969023;28;125057;-66
2021/10/08 10:33:15;;;;;;;20.73;12.00;;;;;;;17.76;61.08;103102.28;4964445;28;127609;-67
2021/10/08 10:35:47;;;;;;;20.70;11.88;;;;;;;17.83;60.89;103103.78;4952182;28;119655;-67
2021/10/08 10:38:21;;;;;;;20.13;11.65;;;;;;;17.89;60.90;103098.22;4956014;28;118943;-66
2021/10/08 10:41:03;;;;;;;19.93;10.83;;;;;;;17.99;61.08;103099.63;4959070;28;124901;-66
2021/10/08 10:43:33;;;;;;;20.38;10.38;;;;;;;18.08;60.75;103093.88;4959337;28;124254;-67
2021/10/08 10:46:27;;;;;;;20.52;12.05;;;;;;;18.18;60.73;103082.78;4959113;28;119993;-66
2021/10/08 10:49:29;;;;;;;19.27;11.15;;;;;;;18.29;60.85;103085.88;4949084;28;120215;-67
2021/10/08 10:51:57;;;;;;;19.95;12.20;;;;;;;18.38;60.45;103084.59;4945518;28;123872;-66
2021/10/08 10:54:59;;;;;;;21.63;12.15;;;;;;;18.43;60.25;103083.47;4963662;28;123766;-66
2021/10/08 10:57:30;;;;;;;19.15;10.98;;;;;;;18.52;60.20;103081.34;4961925;28;120050;-67
2021/10/08 11:00:23;;;;;;;17.02;10.88;;;;;;;18.59;60.04;103077.44;4960087;28;118742;-67
2021/10/08 11:03:08;;;;;;;20.45;10.90;;;;;;;18.68;60.11;103077.03;4964006;28;123880;-67
2021/10/08 11:05:38;;;;;;;20.55;11.27;;;;;;;18.76;59.84;103069.56;4942698;28;124650;-67
2021/10/08 11:08:06;;;;;;;18.48;10.95;;;;;;;18.85;59.17;103063.81;4945025;28;118175;-66
2021/10/08 11:10:36;;;;;;;16.92;9.38;;;;;;;18.92;58.92;103061.72;4958145;28;119429;-66
2021/10/08 11:13:24;;;;;;;15.75;9.40;;;;;;;19.01;58.63;103065.81;4962124;28;124339;-66
2021/10/08 11:15:53;;;;;;;18.13;9.63;;;;;;;19.08;58.08;103061.91;4964983;28;123695;-66
2021/10/08 11:18:39;;;;;;;18.23;9.73;;;;;;;19.14;58.17;103058.91;4965396;28;119890;-66
2021/10/08 11:21:08;;;;;;;19.80;10.30;;;;;;;19.22;58.39;103067.50;4957322;28;119020;-66
2021/10/08 11:23:37;;;;;;;16.80;10.18;;;;;;;19.33;58.41;103060.75;4989100;22;124316;-67